sensor_id;sensor_type;location;lat;lon;timestamp;P1;P2;P0
67892;PMS7003;54688;52.376;16.744;2023-09-07T00:02:27;14;14;
67892;PMS7003;54688;52.376;16.744;2023-09-07T00:05:29;17;17;
67892;PMS7003;54688;52.376;16.744;2023-09-07T00:08:32;22;19;
67892;PMS7003;54688;52.376;16.744;2023-09-07T00:11:34;22;18;
67892;PMS7003;54688;52.376;16.744;2023-09-07T00:14:37;23;16;
67892;PMS7003;54688;52.376;16.744;2023-09-07T00:17:38;19;16;
67892;PMS7003;54688;52.376;16.744;2023-09-07T00:20:40;17;17;
67892;PMS7003;54688;52.376;16.744;2023-09-07T00:23:43;19;16;
67892;PMS7003;54688;52.376;16.744;2023-09-07T00:26:45;20;15;
67892;PMS7003;54688;52.376;16.744;2023-09-07T00:29:47;21;16;
67892;PMS7003;54688;52.376;16.744;2023-09-07T00:32:50;17;17;
67892;PMS7003;54688;52.376;16.744;2023-09-07T00:35:52;22;19;
67892;PMS7003;54688;52.376;16.744;2023-09-07T00:38:54;21;18;
67892;PMS7003;54688;52.376;16.744;2023-09-07T00:41:56;20;19;
67892;PMS7003;54688;52.376;16.744;2023-09-07T00:44:58;23;19;
67892;PMS7003;54688;52.376;16.744;2023-09-07T00:48:00;22;22;
67892;PMS7003;54688;52.376;16.744;2023-09-07T00:51:02;22;18;
67892;PMS7003;54688;52.376;16.744;2023-09-07T00:54:05;16;16;
67892;PMS7003;54688;52.376;16.744;2023-09-07T00:57:08;25;17;
67892;PMS7003;54688;52.376;16.744;2023-09-07T01:00:11;21;20;
67892;PMS7003;54688;52.376;16.744;2023-09-07T01:03:14;24;22;
67892;PMS7003;54688;52.376;16.744;2023-09-07T01:06:20;19;19;
67892;PMS7003;54688;52.376;16.744;2023-09-07T01:09:26;28;25;
67892;PMS7003;54688;52.376;16.744;2023-09-07T01:12:30;25;21;
67892;PMS7003;54688;52.376;16.744;2023-09-07T01:15:32;27;23;
67892;PMS7003;54688;52.376;16.744;2023-09-07T01:18:34;19;17;
67892;PMS7003;54688;52.376;16.744;2023-09-07T01:21:38;21;20;
67892;PMS7003;54688;52.376;16.744;2023-09-07T01:24:41;24;22;
67892;PMS7003;54688;52.376;16.744;2023-09-07T01:27:45;21;19;
67892;PMS7003;54688;52.376;16.744;2023-09-07T01:30:48;23;20;
67892;PMS7003;54688;52.376;16.744;2023-09-07T01:33:49;25;22;
67892;PMS7003;54688;52.376;16.744;2023-09-07T01:36:52;21;18;
67892;PMS7003;54688;52.376;16.744;2023-09-07T01:39:54;21;21;
67892;PMS7003;54688;52.376;16.744;2023-09-07T01:42:56;23;21;
67892;PMS7003;54688;52.376;16.744;2023-09-07T01:45:58;24;19;
67892;PMS7003;54688;52.376;16.744;2023-09-07T01:49:01;21;18;
67892;PMS7003;54688;52.376;16.744;2023-09-07T01:52:04;21;19;
67892;PMS7003;54688;52.376;16.744;2023-09-07T01:55:06;26;21;
67892;PMS7003;54688;52.376;16.744;2023-09-07T01:58:09;24;20;
67892;PMS7003;54688;52.376;16.744;2023-09-07T02:01:20;25;23;
67892;PMS7003;54688;52.376;16.744;2023-09-07T02:04:22;20;19;
67892;PMS7003;54688;52.376;16.744;2023-09-07T02:07:25;24;21;
67892;PMS7003;54688;52.376;16.744;2023-09-07T02:10:27;25;23;
67892;PMS7003;54688;52.376;16.744;2023-09-07T02:13:29;29;24;
67892;PMS7003;54688;52.376;16.744;2023-09-07T02:16:31;28;23;
67892;PMS7003;54688;52.376;16.744;2023-09-07T02:19:33;21;21;
67892;PMS7003;54688;52.376;16.744;2023-09-07T02:22:36;23;21;
67892;PMS7003;54688;52.376;16.744;2023-09-07T02:25:40;24;20;
67892;PMS7003;54688;52.376;16.744;2023-09-07T02:28:42;24;22;
67892;PMS7003;54688;52.376;16.744;2023-09-07T02:31:44;19;18;
67892;PMS7003;54688;52.376;16.744;2023-09-07T02:34:47;22;19;
67892;PMS7003;54688;52.376;16.744;2023-09-07T02:37:49;21;20;
67892;PMS7003;54688;52.376;16.744;2023-09-07T02:40:52;23;16;
67892;PMS7003;54688;52.376;16.744;2023-09-07T02:43:54;24;21;
67892;PMS7003;54688;52.376;16.744;2023-09-07T02:46:56;20;18;
67892;PMS7003;54688;52.376;16.744;2023-09-07T02:49:57;15;15;
67892;PMS7003;54688;52.376;16.744;2023-09-07T02:53:00;21;20;
67892;PMS7003;54688;52.376;16.744;2023-09-07T02:56:03;17;17;
67892;PMS7003;54688;52.376;16.744;2023-09-07T02:59:05;22;19;
67892;PMS7003;54688;52.376;16.744;2023-09-07T03:02:07;25;21;
67892;PMS7003;54688;52.376;16.744;2023-09-07T03:05:09;16;15;
67892;PMS7003;54688;52.376;16.744;2023-09-07T03:08:12;18;16;
67892;PMS7003;54688;52.376;16.744;2023-09-07T03:11:14;19;19;
67892;PMS7003;54688;52.376;16.744;2023-09-07T03:14:16;21;16;
67892;PMS7003;54688;52.376;16.744;2023-09-07T03:17:19;25;23;
67892;PMS7003;54688;52.376;16.744;2023-09-07T03:20:20;21;20;
67892;PMS7003;54688;52.376;16.744;2023-09-07T03:23:23;25;19;
67892;PMS7003;54688;52.376;16.744;2023-09-07T03:26:25;21;19;
67892;PMS7003;54688;52.376;16.744;2023-09-07T03:29:29;20;17;
67892;PMS7003;54688;52.376;16.744;2023-09-07T03:32:31;23;22;
67892;PMS7003;54688;52.376;16.744;2023-09-07T03:35:34;25;19;
67892;PMS7003;54688;52.376;16.744;2023-09-07T03:38:36;25;23;
67892;PMS7003;54688;52.376;16.744;2023-09-07T03:41:39;21;17;
67892;PMS7003;54688;52.376;16.744;2023-09-07T03:44:41;20;20;
67892;PMS7003;54688;52.376;16.744;2023-09-07T03:47:43;22;18;
67892;PMS7003;54688;52.376;16.744;2023-09-07T03:50:45;21;19;
67892;PMS7003;54688;52.376;16.744;2023-09-07T03:53:48;26;23;
67892;PMS7003;54688;52.376;16.744;2023-09-07T03:56:50;18;15;
67892;PMS7003;54688;52.376;16.744;2023-09-07T03:59:53;17;15;
67892;PMS7003;54688;52.376;16.744;2023-09-07T04:02:56;21;21;
67892;PMS7003;54688;52.376;16.744;2023-09-07T04:05:58;25;21;
67892;PMS7003;54688;52.376;16.744;2023-09-07T04:09:00;22;19;
67892;PMS7003;54688;52.376;16.744;2023-09-07T04:12:03;24;24;
67892;PMS7003;54688;52.376;16.744;2023-09-07T04:15:07;27;24;
67892;PMS7003;54688;52.376;16.744;2023-09-07T04:18:09;22;21;
67892;PMS7003;54688;52.376;16.744;2023-09-07T04:21:11;21;20;
67892;PMS7003;54688;52.376;16.744;2023-09-07T04:24:13;24;22;
67892;PMS7003;54688;52.376;16.744;2023-09-07T04:27:15;26;24;
67892;PMS7003;54688;52.376;16.744;2023-09-07T04:30:18;19;19;
67892;PMS7003;54688;52.376;16.744;2023-09-07T04:33:22;22;18;
67892;PMS7003;54688;52.376;16.744;2023-09-07T04:36:24;23;18;
67892;PMS7003;54688;52.376;16.744;2023-09-07T04:39:27;24;21;
67892;PMS7003;54688;52.376;16.744;2023-09-07T04:42:29;28;23;
67892;PMS7003;54688;52.376;16.744;2023-09-07T04:45:32;27;20;
67892;PMS7003;54688;52.376;16.744;2023-09-07T04:48:35;26;22;
67892;PMS7003;54688;52.376;16.744;2023-09-07T04:51:37;28;25;
67892;PMS7003;54688;52.376;16.744;2023-09-07T04:54:40;28;24;
67892;PMS7003;54688;52.376;16.744;2023-09-07T04:57:41;34;30;
67892;PMS7003;54688;52.376;16.744;2023-09-07T05:00:44;23;20;
67892;PMS7003;54688;52.376;16.744;2023-09-07T05:03:46;25;22;
67892;PMS7003;54688;52.376;16.744;2023-09-07T05:06:48;27;24;
67892;PMS7003;54688;52.376;16.744;2023-09-07T05:09:50;30;29;
67892;PMS7003;54688;52.376;16.744;2023-09-07T05:12:51;32;29;
67892;PMS7003;54688;52.376;16.744;2023-09-07T05:15:55;23;20;
67892;PMS7003;54688;52.376;16.744;2023-09-07T05:18:58;31;24;
67892;PMS7003;54688;52.376;16.744;2023-09-07T05:22:00;28;24;
67892;PMS7003;54688;52.376;16.744;2023-09-07T05:25:03;32;24;
67892;PMS7003;54688;52.376;16.744;2023-09-07T05:28:05;30;25;
67892;PMS7003;54688;52.376;16.744;2023-09-07T05:31:07;32;28;
67892;PMS7003;54688;52.376;16.744;2023-09-07T05:34:09;32;29;
67892;PMS7003;54688;52.376;16.744;2023-09-07T05:37:12;29;28;
67892;PMS7003;54688;52.376;16.744;2023-09-07T05:40:14;28;28;
67892;PMS7003;54688;52.376;16.744;2023-09-07T05:43:16;34;31;
67892;PMS7003;54688;52.376;16.744;2023-09-07T05:46:18;31;29;
67892;PMS7003;54688;52.376;16.744;2023-09-07T05:49:21;34;32;
67892;PMS7003;54688;52.376;16.744;2023-09-07T05:52:23;32;29;
67892;PMS7003;54688;52.376;16.744;2023-09-07T05:55:25;42;33;
67892;PMS7003;54688;52.376;16.744;2023-09-07T05:58:27;37;32;
67892;PMS7003;54688;52.376;16.744;2023-09-07T06:01:29;35;32;
67892;PMS7003;54688;52.376;16.744;2023-09-07T06:04:32;31;30;
67892;PMS7003;54688;52.376;16.744;2023-09-07T06:07:34;41;34;
67892;PMS7003;54688;52.376;16.744;2023-09-07T06:10:37;34;30;
67892;PMS7003;54688;52.376;16.744;2023-09-07T06:13:38;37;32;
67892;PMS7003;54688;52.376;16.744;2023-09-07T06:16:40;31;29;
67892;PMS7003;54688;52.376;16.744;2023-09-07T06:19:44;38;32;
67892;PMS7003;54688;52.376;16.744;2023-09-07T06:22:46;36;30;
67892;PMS7003;54688;52.376;16.744;2023-09-07T06:25:48;32;30;
67892;PMS7003;54688;52.376;16.744;2023-09-07T06:28:50;38;30;
67892;PMS7003;54688;52.376;16.744;2023-09-07T06:31:52;37;31;
67892;PMS7003;54688;52.376;16.744;2023-09-07T06:34:54;39;33;
67892;PMS7003;54688;52.376;16.744;2023-09-07T06:37:56;35;32;
67892;PMS7003;54688;52.376;16.744;2023-09-07T06:40:57;38;33;
67892;PMS7003;54688;52.376;16.744;2023-09-07T06:43:59;37;30;
67892;PMS7003;54688;52.376;16.744;2023-09-07T06:47:02;32;30;
67892;PMS7003;54688;52.376;16.744;2023-09-07T06:50:05;37;32;
67892;PMS7003;54688;52.376;16.744;2023-09-07T06:53:07;39;32;
67892;PMS7003;54688;52.376;16.744;2023-09-07T06:56:09;32;29;
67892;PMS7003;54688;52.376;16.744;2023-09-07T06:59:11;33;29;
67892;PMS7003;54688;52.376;16.744;2023-09-07T07:02:14;30;29;
67892;PMS7003;54688;52.376;16.744;2023-09-07T07:05:16;36;32;
67892;PMS7003;54688;52.376;16.744;2023-09-07T07:08:18;29;26;
67892;PMS7003;54688;52.376;16.744;2023-09-07T07:11:20;35;30;
67892;PMS7003;54688;52.376;16.744;2023-09-07T07:14:22;30;28;
67892;PMS7003;54688;52.376;16.744;2023-09-07T07:17:25;34;29;
67892;PMS7003;54688;52.376;16.744;2023-09-07T07:20:27;43;31;
67892;PMS7003;54688;52.376;16.744;2023-09-07T07:23:29;29;26;
67892;PMS7003;54688;52.376;16.744;2023-09-07T07:26:32;28;25;
67892;PMS7003;54688;52.376;16.744;2023-09-07T07:29:34;36;31;
67892;PMS7003;54688;52.376;16.744;2023-09-07T07:32:36;32;29;
67892;PMS7003;54688;52.376;16.744;2023-09-07T07:35:38;29;27;
67892;PMS7003;54688;52.376;16.744;2023-09-07T07:38:41;32;29;
67892;PMS7003;54688;52.376;16.744;2023-09-07T07:41:44;35;28;
67892;PMS7003;54688;52.376;16.744;2023-09-07T07:44:45;32;29;
67892;PMS7003;54688;52.376;16.744;2023-09-07T07:47:48;36;31;
67892;PMS7003;54688;52.376;16.744;2023-09-07T07:50:51;37;27;
67892;PMS7003;54688;52.376;16.744;2023-09-07T07:53:54;30;28;
67892;PMS7003;54688;52.376;16.744;2023-09-07T07:56:55;27;25;
67892;PMS7003;54688;52.376;16.744;2023-09-07T07:59:58;28;26;
67892;PMS7003;54688;52.376;16.744;2023-09-07T08:03:00;28;26;
67892;PMS7003;54688;52.376;16.744;2023-09-07T08:06:02;30;25;
67892;PMS7003;54688;52.376;16.744;2023-09-07T08:09:05;36;28;
67892;PMS7003;54688;52.376;16.744;2023-09-07T08:12:07;26;25;
67892;PMS7003;54688;52.376;16.744;2023-09-07T08:15:09;21;21;
67892;PMS7003;54688;52.376;16.744;2023-09-07T08:18:11;27;21;
67892;PMS7003;54688;52.376;16.744;2023-09-07T08:21:14;24;20;
67892;PMS7003;54688;52.376;16.744;2023-09-07T08:24:16;22;22;
67892;PMS7003;54688;52.376;16.744;2023-09-07T08:27:18;25;22;
67892;PMS7003;54688;52.376;16.744;2023-09-07T08:30:19;21;20;
67892;PMS7003;54688;52.376;16.744;2023-09-07T08:33:22;23;17;
67892;PMS7003;54688;52.376;16.744;2023-09-07T08:36:24;23;20;
67892;PMS7003;54688;52.376;16.744;2023-09-07T08:39:26;22;20;
67892;PMS7003;54688;52.376;16.744;2023-09-07T08:42:29;16;16;
67892;PMS7003;54688;52.376;16.744;2023-09-07T08:45:31;23;19;
67892;PMS7003;54688;52.376;16.744;2023-09-07T08:48:38;17;17;
67892;PMS7003;54688;52.376;16.744;2023-09-07T08:51:41;18;14;
67892;PMS7003;54688;52.376;16.744;2023-09-07T08:54:45;17;14;
67892;PMS7003;54688;52.376;16.744;2023-09-07T08:57:47;14;14;
67892;PMS7003;54688;52.376;16.744;2023-09-07T09:00:49;13;11;
67892;PMS7003;54688;52.376;16.744;2023-09-07T09:03:52;15;14;
67892;PMS7003;54688;52.376;16.744;2023-09-07T09:06:54;16;12;
67892;PMS7003;54688;52.376;16.744;2023-09-07T09:10:03;21;16;
67892;PMS7003;54688;52.376;16.744;2023-09-07T09:13:05;16;14;
67892;PMS7003;54688;52.376;16.744;2023-09-07T09:16:07;16;14;
67892;PMS7003;54688;52.376;16.744;2023-09-07T09:19:09;15;13;
67892;PMS7003;54688;52.376;16.744;2023-09-07T09:22:11;15;12;
67892;PMS7003;54688;52.376;16.744;2023-09-07T09:25:14;13;12;
67892;PMS7003;54688;52.376;16.744;2023-09-07T09:28:17;15;12;
67892;PMS7003;54688;52.376;16.744;2023-09-07T09:31:19;14;14;
67892;PMS7003;54688;52.376;16.744;2023-09-07T09:34:22;14;12;
67892;PMS7003;54688;52.376;16.744;2023-09-07T09:37:24;18;14;
67892;PMS7003;54688;52.376;16.744;2023-09-07T09:40:26;10;10;
67892;PMS7003;54688;52.376;16.744;2023-09-07T09:43:29;15;15;
67892;PMS7003;54688;52.376;16.744;2023-09-07T09:46:31;15;12;
67892;PMS7003;54688;52.376;16.744;2023-09-07T09:49:34;11;11;
67892;PMS7003;54688;52.376;16.744;2023-09-07T09:52:37;13;13;
67892;PMS7003;54688;52.376;16.744;2023-09-07T09:55:40;10;10;
67892;PMS7003;54688;52.376;16.744;2023-09-07T09:58:42;11;11;
67892;PMS7003;54688;52.376;16.744;2023-09-07T10:01:48;14;10;
67892;PMS7003;54688;52.376;16.744;2023-09-07T10:04:50;10;9;
67892;PMS7003;54688;52.376;16.744;2023-09-07T10:07:52;12;10;
67892;PMS7003;54688;52.376;16.744;2023-09-07T10:10:54;11;8;
67892;PMS7003;54688;52.376;16.744;2023-09-07T10:13:57;8;8;
67892;PMS7003;54688;52.376;16.744;2023-09-07T10:17:00;7;7;
67892;PMS7003;54688;52.376;16.744;2023-09-07T10:20:03;8;7;
67892;PMS7003;54688;52.376;16.744;2023-09-07T10:23:06;10;8;
67892;PMS7003;54688;52.376;16.744;2023-09-07T10:26:11;7;6;
67892;PMS7003;54688;52.376;16.744;2023-09-07T10:29:13;10;9;
67892;PMS7003;54688;52.376;16.744;2023-09-07T10:32:15;8;8;
67892;PMS7003;54688;52.376;16.744;2023-09-07T10:35:19;10;7;
67892;PMS7003;54688;52.376;16.744;2023-09-07T10:38:22;13;8;
67892;PMS7003;54688;52.376;16.744;2023-09-07T10:41:24;8;6;
67892;PMS7003;54688;52.376;16.744;2023-09-07T10:44:27;7;7;
67892;PMS7003;54688;52.376;16.744;2023-09-07T10:47:28;7;6;
67892;PMS7003;54688;52.376;16.744;2023-09-07T10:50:30;8;8;
67892;PMS7003;54688;52.376;16.744;2023-09-07T10:53:33;12;9;
67892;PMS7003;54688;52.376;16.744;2023-09-07T10:56:35;9;9;
67892;PMS7003;54688;52.376;16.744;2023-09-07T10:59:37;8;8;
67892;PMS7003;54688;52.376;16.744;2023-09-07T11:02:41;6;6;
67892;PMS7003;54688;52.376;16.744;2023-09-07T11:05:43;11;8;
67892;PMS7003;54688;52.376;16.744;2023-09-07T11:08:45;10;7;
67892;PMS7003;54688;52.376;16.744;2023-09-07T11:11:47;12;10;
67892;PMS7003;54688;52.376;16.744;2023-09-07T11:14:50;9;8;
67892;PMS7003;54688;52.376;16.744;2023-09-07T11:17:52;8;7;
67892;PMS7003;54688;52.376;16.744;2023-09-07T11:20:56;6;6;
67892;PMS7003;54688;52.376;16.744;2023-09-07T11:23:58;12;10;
67892;PMS7003;54688;52.376;16.744;2023-09-07T11:27:01;9;7;
67892;PMS7003;54688;52.376;16.744;2023-09-07T11:30:05;14;9;
67892;PMS7003;54688;52.376;16.744;2023-09-07T11:33:07;9;8;
67892;PMS7003;54688;52.376;16.744;2023-09-07T11:36:10;12;9;
67892;PMS7003;54688;52.376;16.744;2023-09-07T11:39:11;14;11;
67892;PMS7003;54688;52.376;16.744;2023-09-07T11:42:13;8;8;
67892;PMS7003;54688;52.376;16.744;2023-09-07T11:45:16;12;8;
67892;PMS7003;54688;52.376;16.744;2023-09-07T11:48:18;7;7;
67892;PMS7003;54688;52.376;16.744;2023-09-07T11:51:21;9;8;
67892;PMS7003;54688;52.376;16.744;2023-09-07T11:54:23;7;7;
67892;PMS7003;54688;52.376;16.744;2023-09-07T11:57:25;8;8;
67892;PMS7003;54688;52.376;16.744;2023-09-07T12:00:28;8;8;
67892;PMS7003;54688;52.376;16.744;2023-09-07T12:03:30;6;6;
67892;PMS7003;54688;52.376;16.744;2023-09-07T12:06:32;8;7;
67892;PMS7003;54688;52.376;16.744;2023-09-07T12:09:35;10;8;
67892;PMS7003;54688;52.376;16.744;2023-09-07T12:12:37;12;9;
67892;PMS7003;54688;52.376;16.744;2023-09-07T12:15:39;8;8;
67892;PMS7003;54688;52.376;16.744;2023-09-07T12:18:42;7;7;
67892;PMS7003;54688;52.376;16.744;2023-09-07T12:21:44;8;7;
67892;PMS7003;54688;52.376;16.744;2023-09-07T12:24:47;8;6;
67892;PMS7003;54688;52.376;16.744;2023-09-07T12:27:49;10;7;
67892;PMS7003;54688;52.376;16.744;2023-09-07T12:30:51;6;6;
67892;PMS7003;54688;52.376;16.744;2023-09-07T12:33:53;7;7;
67892;PMS7003;54688;52.376;16.744;2023-09-07T12:36:55;7;7;
67892;PMS7003;54688;52.376;16.744;2023-09-07T12:39:57;8;8;
67892;PMS7003;54688;52.376;16.744;2023-09-07T12:43:00;9;7;
67892;PMS7003;54688;52.376;16.744;2023-09-07T12:46:02;8;7;
67892;PMS7003;54688;52.376;16.744;2023-09-07T12:49:05;8;7;
67892;PMS7003;54688;52.376;16.744;2023-09-07T12:52:08;7;7;
67892;PMS7003;54688;52.376;16.744;2023-09-07T12:55:10;11;8;
67892;PMS7003;54688;52.376;16.744;2023-09-07T12:58:12;9;7;
67892;PMS7003;54688;52.376;16.744;2023-09-07T13:01:14;10;7;
67892;PMS7003;54688;52.376;16.744;2023-09-07T13:04:17;11;6;
67892;PMS7003;54688;52.376;16.744;2023-09-07T13:07:19;7;6;
67892;PMS7003;54688;52.376;16.744;2023-09-07T13:10:22;8;7;
67892;PMS7003;54688;52.376;16.744;2023-09-07T13:13:24;9;6;
67892;PMS7003;54688;52.376;16.744;2023-09-07T13:16:26;6;4;
67892;PMS7003;54688;52.376;16.744;2023-09-07T13:19:29;7;6;
67892;PMS7003;54688;52.376;16.744;2023-09-07T13:22:31;11;8;
67892;PMS7003;54688;52.376;16.744;2023-09-07T13:25:33;9;6;
67892;PMS7003;54688;52.376;16.744;2023-09-07T13:28:36;6;5;
67892;PMS7003;54688;52.376;16.744;2023-09-07T13:31:38;5;5;
67892;PMS7003;54688;52.376;16.744;2023-09-07T13:34:40;6;6;
67892;PMS7003;54688;52.376;16.744;2023-09-07T13:37:42;5;5;
67892;PMS7003;54688;52.376;16.744;2023-09-07T13:40:45;8;7;
67892;PMS7003;54688;52.376;16.744;2023-09-07T13:43:47;7;5;
67892;PMS7003;54688;52.376;16.744;2023-09-07T13:46:49;6;5;
67892;PMS7003;54688;52.376;16.744;2023-09-07T13:49:51;11;6;
67892;PMS7003;54688;52.376;16.744;2023-09-07T13:52:54;10;7;
67892;PMS7003;54688;52.376;16.744;2023-09-07T13:55:56;6;6;
67892;PMS7003;54688;52.376;16.744;2023-09-07T13:58:59;7;6;
67892;PMS7003;54688;52.376;16.744;2023-09-07T14:02:01;9;7;
67892;PMS7003;54688;52.376;16.744;2023-09-07T14:05:04;8;7;
67892;PMS7003;54688;52.376;16.744;2023-09-07T14:08:06;6;6;
67892;PMS7003;54688;52.376;16.744;2023-09-07T14:11:09;6;6;
67892;PMS7003;54688;52.376;16.744;2023-09-07T14:14:11;5;5;
67892;PMS7003;54688;52.376;16.744;2023-09-07T14:17:14;5;5;
67892;PMS7003;54688;52.376;16.744;2023-09-07T14:20:16;9;7;
67892;PMS7003;54688;52.376;16.744;2023-09-07T14:23:18;6;6;
67892;PMS7003;54688;52.376;16.744;2023-09-07T14:26:21;7;6;
67892;PMS7003;54688;52.376;16.744;2023-09-07T14:29:23;6;5;
67892;PMS7003;54688;52.376;16.744;2023-09-07T14:32:26;8;7;
67892;PMS7003;54688;52.376;16.744;2023-09-07T14:35:28;7;7;
67892;PMS7003;54688;52.376;16.744;2023-09-07T14:41:30;8;7;
67892;PMS7003;54688;52.376;16.744;2023-09-07T14:44:33;5;5;
67892;PMS7003;54688;52.376;16.744;2023-09-07T14:47:36;7;7;
67892;PMS7003;54688;52.376;16.744;2023-09-07T14:50:39;5;5;
67892;PMS7003;54688;52.376;16.744;2023-09-07T14:53:41;8;6;
67892;PMS7003;54688;52.376;16.744;2023-09-07T14:56:44;6;6;
67892;PMS7003;54688;52.376;16.744;2023-09-07T14:59:47;7;5;
67892;PMS7003;54688;52.376;16.744;2023-09-07T15:02:50;6;6;
67892;PMS7003;54688;52.376;16.744;2023-09-07T15:05:53;7;7;
67892;PMS7003;54688;52.376;16.744;2023-09-07T15:08:56;7;6;
67892;PMS7003;54688;52.376;16.744;2023-09-07T15:11:58;7;5;
67892;PMS7003;54688;52.376;16.744;2023-09-07T15:15:00;6;6;
67892;PMS7003;54688;52.376;16.744;2023-09-07T15:18:03;6;6;
67892;PMS7003;54688;52.376;16.744;2023-09-07T15:21:05;9;7;
67892;PMS7003;54688;52.376;16.744;2023-09-07T15:24:08;6;6;
67892;PMS7003;54688;52.376;16.744;2023-09-07T15:27:12;6;4;
67892;PMS7003;54688;52.376;16.744;2023-09-07T15:30:14;7;6;
67892;PMS7003;54688;52.376;16.744;2023-09-07T15:33:16;5;5;
67892;PMS7003;54688;52.376;16.744;2023-09-07T15:36:19;6;5;
67892;PMS7003;54688;52.376;16.744;2023-09-07T15:39:21;5;5;
67892;PMS7003;54688;52.376;16.744;2023-09-07T15:42:23;6;6;
67892;PMS7003;54688;52.376;16.744;2023-09-07T15:45:26;5;4;
67892;PMS7003;54688;52.376;16.744;2023-09-07T15:48:28;6;5;
67892;PMS7003;54688;52.376;16.744;2023-09-07T15:51:30;8;6;
67892;PMS7003;54688;52.376;16.744;2023-09-07T15:54:32;9;7;
67892;PMS7003;54688;52.376;16.744;2023-09-07T15:57:35;6;6;
67892;PMS7003;54688;52.376;16.744;2023-09-07T16:00:37;7;6;
67892;PMS7003;54688;52.376;16.744;2023-09-07T16:03:39;5;5;
67892;PMS7003;54688;52.376;16.744;2023-09-07T16:06:42;7;7;
67892;PMS7003;54688;52.376;16.744;2023-09-07T16:09:44;7;5;
67892;PMS7003;54688;52.376;16.744;2023-09-07T16:12:46;5;5;
67892;PMS7003;54688;52.376;16.744;2023-09-07T16:15:48;7;7;
67892;PMS7003;54688;52.376;16.744;2023-09-07T16:18:51;6;6;
67892;PMS7003;54688;52.376;16.744;2023-09-07T16:21:53;6;6;
67892;PMS7003;54688;52.376;16.744;2023-09-07T16:24:56;6;6;
67892;PMS7003;54688;52.376;16.744;2023-09-07T16:27:58;8;6;
67892;PMS7003;54688;52.376;16.744;2023-09-07T16:31:00;5;5;
67892;PMS7003;54688;52.376;16.744;2023-09-07T16:34:04;6;6;
67892;PMS7003;54688;52.376;16.744;2023-09-07T16:37:06;7;7;
67892;PMS7003;54688;52.376;16.744;2023-09-07T16:40:08;6;6;
67892;PMS7003;54688;52.376;16.744;2023-09-07T16:43:10;7;6;
67892;PMS7003;54688;52.376;16.744;2023-09-07T16:46:13;5;5;
67892;PMS7003;54688;52.376;16.744;2023-09-07T16:49:16;11;7;
67892;PMS7003;54688;52.376;16.744;2023-09-07T16:52:18;5;5;
67892;PMS7003;54688;52.376;16.744;2023-09-07T16:55:20;7;7;
67892;PMS7003;54688;52.376;16.744;2023-09-07T16:58:23;6;5;
67892;PMS7003;54688;52.376;16.744;2023-09-07T17:01:25;7;6;
67892;PMS7003;54688;52.376;16.744;2023-09-07T17:04:31;8;8;
67892;PMS7003;54688;52.376;16.744;2023-09-07T17:07:33;8;8;
67892;PMS7003;54688;52.376;16.744;2023-09-07T17:10:35;7;7;
67892;PMS7003;54688;52.376;16.744;2023-09-07T17:13:37;12;9;
67892;PMS7003;54688;52.376;16.744;2023-09-07T17:16:40;11;9;
67892;PMS7003;54688;52.376;16.744;2023-09-07T17:19:42;10;8;
67892;PMS7003;54688;52.376;16.744;2023-09-07T17:22:45;9;7;
67892;PMS7003;54688;52.376;16.744;2023-09-07T17:25:47;10;10;
67892;PMS7003;54688;52.376;16.744;2023-09-07T17:28:49;9;9;
67892;PMS7003;54688;52.376;16.744;2023-09-07T17:31:52;14;9;
67892;PMS7003;54688;52.376;16.744;2023-09-07T17:34:54;12;10;
67892;PMS7003;54688;52.376;16.744;2023-09-07T17:37:56;10;9;
67892;PMS7003;54688;52.376;16.744;2023-09-07T17:40:59;12;11;
67892;PMS7003;54688;52.376;16.744;2023-09-07T17:44:02;11;9;
67892;PMS7003;54688;52.376;16.744;2023-09-07T17:47:04;14;10;
67892;PMS7003;54688;52.376;16.744;2023-09-07T17:50:08;11;11;
67892;PMS7003;54688;52.376;16.744;2023-09-07T17:53:10;17;13;
67892;PMS7003;54688;52.376;16.744;2023-09-07T17:56:12;12;12;
67892;PMS7003;54688;52.376;16.744;2023-09-07T17:59:15;14;13;
67892;PMS7003;54688;52.376;16.744;2023-09-07T18:02:19;14;11;
67892;PMS7003;54688;52.376;16.744;2023-09-07T18:05:21;16;15;
67892;PMS7003;54688;52.376;16.744;2023-09-07T18:08:23;15;12;
67892;PMS7003;54688;52.376;16.744;2023-09-07T18:11:26;13;12;
67892;PMS7003;54688;52.376;16.744;2023-09-07T18:14:28;18;16;
67892;PMS7003;54688;52.376;16.744;2023-09-07T18:17:30;16;16;
67892;PMS7003;54688;52.376;16.744;2023-09-07T18:20:33;19;16;
67892;PMS7003;54688;52.376;16.744;2023-09-07T18:23:34;18;16;
67892;PMS7003;54688;52.376;16.744;2023-09-07T18:26:37;16;15;
67892;PMS7003;54688;52.376;16.744;2023-09-07T18:29:39;17;16;
67892;PMS7003;54688;52.376;16.744;2023-09-07T18:32:42;12;12;
67892;PMS7003;54688;52.376;16.744;2023-09-07T18:35:44;15;14;
67892;PMS7003;54688;52.376;16.744;2023-09-07T18:38:46;16;14;
67892;PMS7003;54688;52.376;16.744;2023-09-07T18:41:49;19;14;
67892;PMS7003;54688;52.376;16.744;2023-09-07T18:44:52;20;17;
67892;PMS7003;54688;52.376;16.744;2023-09-07T18:47:54;17;15;
67892;PMS7003;54688;52.376;16.744;2023-09-07T18:51:00;15;12;
67892;PMS7003;54688;52.376;16.744;2023-09-07T18:54:02;21;17;
67892;PMS7003;54688;52.376;16.744;2023-09-07T18:57:05;16;16;
67892;PMS7003;54688;52.376;16.744;2023-09-07T19:00:07;16;13;
67892;PMS7003;54688;52.376;16.744;2023-09-07T19:03:11;12;12;
67892;PMS7003;54688;52.376;16.744;2023-09-07T19:06:13;14;12;
67892;PMS7003;54688;52.376;16.744;2023-09-07T19:09:16;15;15;
67892;PMS7003;54688;52.376;16.744;2023-09-07T19:12:18;18;14;
67892;PMS7003;54688;52.376;16.744;2023-09-07T19:15:20;20;17;
67892;PMS7003;54688;52.376;16.744;2023-09-07T19:18:22;16;16;
67892;PMS7003;54688;52.376;16.744;2023-09-07T19:21:25;15;15;
67892;PMS7003;54688;52.376;16.744;2023-09-07T19:24:27;16;16;
67892;PMS7003;54688;52.376;16.744;2023-09-07T19:27:29;19;18;
67892;PMS7003;54688;52.376;16.744;2023-09-07T19:30:31;24;19;
67892;PMS7003;54688;52.376;16.744;2023-09-07T19:33:34;15;15;
67892;PMS7003;54688;52.376;16.744;2023-09-07T19:36:36;18;18;
67892;PMS7003;54688;52.376;16.744;2023-09-07T19:39:38;18;16;
67892;PMS7003;54688;52.376;16.744;2023-09-07T19:42:39;16;15;
67892;PMS7003;54688;52.376;16.744;2023-09-07T19:45:44;19;17;
67892;PMS7003;54688;52.376;16.744;2023-09-07T19:48:47;18;16;
67892;PMS7003;54688;52.376;16.744;2023-09-07T19:51:49;24;23;
67892;PMS7003;54688;52.376;16.744;2023-09-07T19:54:51;22;21;
67892;PMS7003;54688;52.376;16.744;2023-09-07T19:57:53;23;19;
67892;PMS7003;54688;52.376;16.744;2023-09-07T20:00:57;24;22;
67892;PMS7003;54688;52.376;16.744;2023-09-07T20:03:59;23;20;
67892;PMS7003;54688;52.376;16.744;2023-09-07T20:07:01;23;19;